Time;durP1;ratioP1;P1;durP2;ratioP2;P2;SDS_P1;SDS_P2;PMS_P1;PMS_P2;Temp;Humidity;BMP_temperature;BMP_pressure;BME280_temperature;BME280_humidity;BME280_pressure;Samples;Min_cycle;Max_cycle;Signal;HPM_P1;HPM_P2
2023/08/04 00:01:35;;;;;;;2.65;1.27;;;15.90;99.90;;;;;;4963785;28;21392;-82
2023/08/04 00:04:01;;;;;;;9.32;1.42;;;15.90;99.90;;;;;;4963574;28;20036;-83
2023/08/04 00:06:26;;;;;;;5.43;1.83;;;15.80;99.90;;;;;;4961820;28;20106;-83
2023/08/04 00:08:52;;;;;;;5.00;1.50;;;15.80;99.90;;;;;;4961968;28;20031;-82
2023/08/04 00:11:17;;;;;;;3.95;1.27;;;15.70;99.90;;;;;;4962352;28;20038;-82
2023/08/04 00:13:43;;;;;;;6.05;1.75;;;15.70;99.90;;;;;;4962425;28;20152;-82
2023/08/04 00:16:09;;;;;;;3.95;1.60;;;15.60;99.90;;;;;;4963905;28;20042;-82
2023/08/04 00:18:36;;;;;;;4.03;1.50;;;15.60;99.90;;;;;;4961798;28;20087;-82
2023/08/04 00:21:02;;;;;;;2.17;1.05;;;15.60;99.90;;;;;;4963339;28;20042;-82
2023/08/04 00:23:28;;;;;;;4.50;1.35;;;15.60;99.90;;;;;;4962479;28;20082;-82
2023/08/04 00:25:54;;;;;;;3.65;1.50;;;15.60;99.90;;;;;;4964436;28;20469;-82
2023/08/04 00:28:20;;;;;;;4.15;1.40;;;15.50;99.90;;;;;;4963270;28;20091;-82
2023/08/04 00:30:45;;;;;;;4.63;1.30;;;15.60;99.90;;;;;;4963307;28;20034;-82
2023/08/04 00:33:11;;;;;;;4.72;1.48;;;15.60;99.90;;;;;;4963807;28;20062;-82
2023/08/04 00:35:36;;;;;;;3.67;1.27;;;15.60;99.90;;;;;;4961611;28;20087;-82
2023/08/04 00:38:02;;;;;;;5.05;1.50;;;15.50;99.90;;;;;;4962865;28;20031;-82
2023/08/04 00:40:30;;;;;;;4.07;1.60;;;15.50;99.90;;;;;;4962435;28;20056;-82
2023/08/04 00:42:56;;;;;;;5.13;1.60;;;15.50;99.90;;;;;;4962736;28;20093;-82
2023/08/04 00:45:24;;;;;;;4.10;1.10;;;15.50;99.90;;;;;;4962531;28;20034;-82
2023/08/04 00:47:54;;;;;;;2.38;1.40;;;15.50;99.90;;;;;;4963432;28;20116;-82
2023/08/04 00:50:20;;;;;;;4.63;1.35;;;15.50;99.90;;;;;;4966199;28;20393;-82
2023/08/04 00:52:46;;;;;;;5.05;1.42;;;15.50;99.90;;;;;;4965541;28;20035;-82
2023/08/04 00:55:13;;;;;;;4.45;1.20;;;15.50;99.90;;;;;;4966645;28;20023;-82
2023/08/04 00:57:39;;;;;;;2.20;1.20;;;15.50;99.90;;;;;;4965425;28;20034;-82
2023/08/04 01:00:06;;;;;;;6.97;1.73;;;15.50;99.90;;;;;;4966300;28;20027;-82
2023/08/04 01:02:32;;;;;;;4.05;1.75;;;15.50;99.90;;;;;;4965559;28;20097;-82
2023/08/04 01:04:58;;;;;;;5.25;1.92;;;15.50;99.90;;;;;;4964847;28;20033;-83
2023/08/04 01:07:26;;;;;;;6.55;1.80;;;15.50;99.90;;;;;;4966686;28;20022;-82
2023/08/04 01:10:11;;;;;;;6.13;1.52;;;15.40;99.90;;;;;;4965671;28;20115;-82
2023/08/04 01:13:01;;;;;;;3.65;1.27;;;15.40;99.90;;;;;;4964962;28;20031;-82
2023/08/04 01:15:27;;;;;;;3.42;1.30;;;15.40;99.90;;;;;;4964029;28;20058;-83
2023/08/04 01:17:56;;;;;;;6.13;1.23;;;15.40;99.90;;;;;;4965656;28;20019;-82
2023/08/04 01:20:24;;;;;;;3.38;1.63;;;15.30;99.90;;;;;;4965727;28;21029;-82
2023/08/04 01:22:50;;;;;;;3.55;1.50;;;15.30;99.90;;;;;;4966079;28;20497;-82
2023/08/04 01:25:16;;;;;;;6.35;1.48;;;15.30;99.90;;;;;;4966356;28;20044;-82
2023/08/04 01:27:44;;;;;;;2.47;1.10;;;15.30;99.90;;;;;;4964358;28;20034;-82
2023/08/04 01:30:18;;;;;;;5.88;1.42;;;15.30;99.90;;;;;;4964011;28;20035;-83
2023/08/04 01:32:44;;;;;;;4.75;1.30;;;15.30;99.90;;;;;;4966376;28;20039;-82
2023/08/04 01:35:10;;;;;;;4.60;1.30;;;15.20;99.90;;;;;;4965524;28;20509;-83
2023/08/04 01:37:36;;;;;;;2.97;1.20;;;15.20;99.90;;;;;;4965664;28;20042;-82
2023/08/04 01:40:02;;;;;;;2.85;1.25;;;15.20;99.90;;;;;;4966441;28;20100;-82
2023/08/04 01:42:27;;;;;;;3.05;1.30;;;15.20;99.90;;;;;;4965622;28;20033;-82
2023/08/04 01:44:53;;;;;;;5.32;1.55;;;15.20;99.90;;;;;;4965342;28;20038;-83
2023/08/04 01:47:19;;;;;;;4.88;1.67;;;15.20;99.90;;;;;;4965241;28;20731;-83
2023/08/04 01:49:44;;;;;;;2.88;1.20;;;15.10;99.90;;;;;;4963992;28;20031;-83
2023/08/04 01:52:10;;;;;;;2.67;1.10;;;15.10;99.90;;;;;;4965361;28;20061;-83
2023/08/04 01:54:35;;;;;;;4.25;1.30;;;15.10;99.90;;;;;;4963798;28;20031;-82
2023/08/04 01:57:01;;;;;;;3.22;1.25;;;15.00;99.90;;;;;;4965411;28;20024;-82
2023/08/04 01:59:26;;;;;;;4.88;1.20;;;15.10;99.90;;;;;;4963384;28;20023;-82
2023/08/04 02:01:52;;;;;;;3.45;1.23;;;15.00;99.90;;;;;;4964411;28;20544;-82
2023/08/04 02:04:17;;;;;;;4.28;1.38;;;15.00;99.90;;;;;;4963202;28;20043;-82
2023/08/04 02:06:43;;;;;;;3.25;1.02;;;15.00;99.90;;;;;;4962854;28;20035;-82
2023/08/04 02:09:08;;;;;;;7.82;1.30;;;15.00;99.90;;;;;;4964146;28;20030;-82
2023/08/04 02:11:34;;;;;;;1.95;1.00;;;14.90;99.90;;;;;;4960885;28;20031;-82
2023/08/04 02:14:01;;;;;;;4.22;1.08;;;14.90;99.90;;;;;;4963491;28;20102;-82
2023/08/04 02:16:26;;;;;;;5.15;1.40;;;14.90;99.90;;;;;;4961824;28;20108;-82
2023/08/04 02:19:01;;;;;;;2.67;1.10;;;14.90;99.90;;;;;;4963833;28;20019;-81
2023/08/04 02:21:27;;;;;;;1.48;1.02;;;14.80;99.90;;;;;;4963831;28;20019;-82
2023/08/04 02:23:52;;;;;;;3.38;1.38;;;14.80;99.90;;;;;;4962493;28;20896;-81
2023/08/04 02:26:18;;;;;;;3.10;1.13;;;14.80;99.90;;;;;;4963767;28;20054;-81
2023/08/04 02:28:44;;;;;;;3.55;1.20;;;14.80;99.90;;;;;;4963602;28;20043;-81
2023/08/04 02:31:09;;;;;;;3.25;1.10;;;14.80;99.90;;;;;;4965827;28;20031;-82
2023/08/04 02:33:35;;;;;;;2.78;1.20;;;14.80;99.90;;;;;;4963937;28;20031;-82
2023/08/04 02:36:03;;;;;;;4.57;1.50;;;14.80;99.90;;;;;;4965324;28;20022;-82
2023/08/04 02:38:29;;;;;;;2.75;1.20;;;14.80;99.90;;;;;;4963976;28;20023;-82
2023/08/04 02:41:02;;;;;;;3.38;1.30;;;14.80;99.90;;;;;;4963996;28;20038;-81
2023/08/04 02:43:28;;;;;;;3.08;1.20;;;14.70;99.90;;;;;;4962335;28;20164;-81
2023/08/04 02:45:54;;;;;;;5.30;1.20;;;14.70;99.90;;;;;;4962284;28;20098;-82
2023/08/04 02:48:19;;;;;;;3.70;1.20;;;14.70;99.90;;;;;;4962068;28;20039;-81
2023/08/04 02:50:46;;;;;;;5.32;1.50;;;14.70;99.90;;;;;;4963529;28;20161;-81
2023/08/04 02:53:12;;;;;;;5.53;1.40;;;14.70;99.90;;;;;;4963009;28;21132;-81
2023/08/04 02:55:38;;;;;;;2.63;1.02;;;14.70;99.90;;;;;;4961829;28;20038;-81
2023/08/04 02:58:03;;;;;;;3.63;1.35;;;14.70;99.90;;;;;;4963264;28;20034;-81
2023/08/04 03:00:30;;;;;;;3.67;1.30;;;14.70;99.90;;;;;;4963531;28;20023;-81
2023/08/04 03:02:56;;;;;;;6.28;1.40;;;14.70;99.90;;;;;;4963418;28;20048;-82
2023/08/04 03:05:21;;;;;;;4.55;1.20;;;14.70;99.90;;;;;;4961814;28;20030;-81
2023/08/04 03:07:47;;;;;;;4.75;1.60;;;14.70;99.90;;;;;;4962686;28;20054;-81
2023/08/04 03:10:13;;;;;;;3.55;1.15;;;14.70;99.90;;;;;;4964524;28;20112;-82
2023/08/04 03:12:38;;;;;;;2.33;1.02;;;14.70;99.90;;;;;;4961056;28;20098;-82
2023/08/04 03:15:04;;;;;;;4.72;1.13;;;14.70;99.90;;;;;;4962840;28;20037;-82
2023/08/04 03:17:30;;;;;;;4.68;1.60;;;14.70;99.90;;;;;;4960930;28;20054;-82
2023/08/04 03:19:55;;;;;;;3.42;1.10;;;14.70;99.90;;;;;;4961842;28;20090;-82
2023/08/04 03:22:21;;;;;;;5.32;1.23;;;14.60;99.90;;;;;;4962829;28;20127;-82
2023/08/04 03:24:46;;;;;;;4.25;1.45;;;14.60;99.90;;;;;;4962795;28;20134;-82
2023/08/04 03:27:12;;;;;;;3.13;1.23;;;14.60;99.90;;;;;;4962917;28;20041;-82
2023/08/04 03:29:38;;;;;;;3.05;1.48;;;14.60;99.90;;;;;;4962595;28;20320;-82
2023/08/04 03:32:04;;;;;;;5.50;1.30;;;14.60;99.90;;;;;;4963734;28;20070;-81
2023/08/04 03:34:29;;;;;;;3.45;1.20;;;14.50;99.90;;;;;;4962520;28;20031;-82
2023/08/04 03:36:55;;;;;;;2.50;1.23;;;14.50;99.90;;;;;;4962491;28;20023;-82
2023/08/04 03:39:20;;;;;;;3.70;1.20;;;14.50;99.90;;;;;;4963544;28;20034;-82
2023/08/04 03:41:46;;;;;;;4.28;1.42;;;14.50;99.90;;;;;;4963450;28;20615;-82
2023/08/04 03:44:11;;;;;;;1.85;1.10;;;14.50;99.90;;;;;;4962530;28;20035;-82
2023/08/04 03:46:37;;;;;;;2.80;1.23;;;14.50;99.90;;;;;;4962234;28;20023;-82
2023/08/04 03:49:02;;;;;;;4.80;1.25;;;14.50;99.90;;;;;;4962437;28;21489;-82
2023/08/04 03:51:28;;;;;;;3.05;1.30;;;14.40;99.90;;;;;;4963060;28;20034;-83
2023/08/04 03:53:53;;;;;;;2.50;1.30;;;14.40;99.90;;;;;;4963302;28;20446;-82
2023/08/04 03:56:19;;;;;;;5.00;1.30;;;14.40;99.90;;;;;;4962297;28;20027;-82
2023/08/04 03:58:44;;;;;;;4.15;1.55;;;14.40;99.90;;;;;;4963453;28;20108;-82
2023/08/04 04:01:10;;;;;;;7.05;1.60;;;14.40;99.90;;;;;;4962874;28;20023;-82
2023/08/04 04:03:36;;;;;;;2.75;1.15;;;14.40;99.90;;;;;;4962563;28;20106;-82
2023/08/04 04:06:01;;;;;;;4.25;1.67;;;14.40;99.90;;;;;;4961898;28;21303;-82
2023/08/04 04:08:27;;;;;;;3.42;1.30;;;14.40;99.90;;;;;;4963486;28;20038;-82
2023/08/04 04:10:55;;;;;;;4.40;1.20;;;14.40;99.90;;;;;;4960469;28;20027;-82
2023/08/04 04:13:21;;;;;;;3.72;1.40;;;14.40;99.90;;;;;;4961269;28;20065;-82
2023/08/04 04:15:47;;;;;;;3.05;1.25;;;14.40;99.90;;;;;;4961279;28;20038;-82
2023/08/04 04:18:12;;;;;;;4.53;1.50;;;14.50;99.90;;;;;;4961233;28;20022;-82
2023/08/04 04:20:38;;;;;;;5.35;1.55;;;14.50;99.90;;;;;;4959513;28;20035;-82
2023/08/04 04:23:03;;;;;;;4.00;1.40;;;14.50;99.90;;;;;;4962387;28;20072;-81
2023/08/04 04:25:29;;;;;;;4.55;1.25;;;14.50;99.90;;;;;;4967091;28;20023;-82
2023/08/04 04:27:55;;;;;;;4.70;1.38;;;14.50;99.90;;;;;;4966162;28;20037;-82
2023/08/04 04:30:20;;;;;;;5.10;1.30;;;14.40;99.90;;;;;;4966526;28;20441;-81
2023/08/04 04:32:46;;;;;;;2.35;1.40;;;14.50;99.90;;;;;;4967622;28;20462;-84
2023/08/04 04:35:11;;;;;;;2.83;1.30;;;14.50;99.90;;;;;;4966392;28;20482;-82
2023/08/04 04:37:37;;;;;;;5.93;1.60;;;14.50;99.90;;;;;;4966395;28;20778;-82
2023/08/04 04:40:03;;;;;;;5.53;1.70;;;14.50;99.90;;;;;;4966147;28;20090;-83
2023/08/04 04:42:28;;;;;;;5.15;1.17;;;14.50;99.90;;;;;;4966357;28;20741;-82
2023/08/04 04:44:55;;;;;;;4.03;1.30;;;14.50;99.90;;;;;;4966304;28;20088;-82
2023/08/04 04:47:20;;;;;;;4.68;1.23;;;14.50;99.90;;;;;;4965765;28;20053;-83
2023/08/04 04:49:46;;;;;;;2.58;1.00;;;14.50;99.90;;;;;;4963791;28;20146;-83
2023/08/04 04:52:19;;;;;;;5.13;1.45;;;14.50;99.90;;;;;;4957509;28;20042;-83
2023/08/04 04:54:46;;;;;;;3.67;1.02;;;14.50;99.90;;;;;;4961396;28;20033;-83
2023/08/04 04:57:11;;;;;;;3.63;1.40;;;14.50;99.90;;;;;;4959025;28;20067;-82
2023/08/04 04:59:37;;;;;;;3.08;1.10;;;14.50;99.90;;;;;;4959616;28;20105;-83
2023/08/04 05:02:02;;;;;;;4.70;1.50;;;14.40;99.90;;;;;;4958515;28;20217;-82
2023/08/04 05:04:28;;;;;;;5.03;1.63;;;14.40;99.90;;;;;;4960360;28;20214;-83
2023/08/04 05:06:53;;;;;;;3.88;1.17;;;14.50;99.90;;;;;;4962951;28;20061;-82
2023/08/04 05:09:19;;;;;;;3.08;1.10;;;14.40;99.90;;;;;;4961973;28;20040;-83
2023/08/04 05:11:44;;;;;;;3.78;1.48;;;14.40;99.90;;;;;;4964778;28;20033;-82
2023/08/04 05:14:10;;;;;;;3.72;1.23;;;14.40;99.90;;;;;;4964793;28;20039;-83
2023/08/04 05:16:35;;;;;;;3.13;1.55;;;14.40;99.90;;;;;;4962127;28;20032;-83
2023/08/04 05:19:01;;;;;;;3.13;1.27;;;14.40;99.90;;;;;;4964248;28;20022;-84
2023/08/04 05:21:26;;;;;;;5.32;1.33;;;14.40;99.90;;;;;;4964492;28;20125;-83
2023/08/04 05:23:52;;;;;;;4.13;1.13;;;14.40;99.90;;;;;;4960933;28;20098;-84
2023/08/04 05:26:17;;;;;;;4.57;1.27;;;14.40;99.90;;;;;;4963537;28;20050;-84
2023/08/04 05:28:43;;;;;;;3.17;1.20;;;14.40;99.90;;;;;;4964584;28;20034;-84
2023/08/04 05:31:09;;;;;;;4.63;1.58;;;14.40;99.90;;;;;;4963590;28;20054;-83
2023/08/04 05:33:34;;;;;;;3.55;1.10;;;14.40;99.90;;;;;;4959992;28;20049;-84
2023/08/04 05:36:00;;;;;;;6.40;1.35;;;14.40;99.90;;;;;;4961377;28;20051;-84
2023/08/04 05:38:25;;;;;;;1.80;0.93;;;14.40;99.90;;;;;;4962561;28;20180;-83
2023/08/04 05:40:52;;;;;;;3.85;1.52;;;14.40;99.90;;;;;;4962152;28;20034;-84
2023/08/04 05:43:18;;;;;;;3.42;1.40;;;14.40;99.90;;;;;;4963586;28;20023;-84
2023/08/04 05:45:47;;;;;;;5.35;1.35;;;14.40;99.90;;;;;;4963160;28;20671;-83
2023/08/04 05:48:12;;;;;;;3.72;1.15;;;14.40;99.90;;;;;;4963763;28;20027;-83
2023/08/04 05:50:38;;;;;;;2.45;1.08;;;14.40;99.90;;;;;;4961260;28;20057;-84
2023/08/04 05:53:04;;;;;;;2.50;1.00;;;14.40;99.90;;;;;;4960422;28;20070;-83
2023/08/04 05:55:30;;;;;;;3.47;1.20;;;14.40;99.90;;;;;;4960544;28;20024;-84
2023/08/04 05:57:56;;;;;;;2.78;1.10;;;14.50;99.90;;;;;;4961029;28;20161;-83
2023/08/04 06:00:22;;;;;;;2.00;1.02;;;14.50;99.90;;;;;;4961626;28;20033;-84
2023/08/04 06:02:48;;;;;;;2.47;1.08;;;14.50;99.90;;;;;;4961529;28;20487;-83
2023/08/04 06:05:13;;;;;;;3.50;1.05;;;14.50;99.90;;;;;;4961244;28;20102;-83
2023/08/04 06:07:42;;;;;;;2.65;1.02;;;14.50;99.90;;;;;;4962394;28;20183;-83
2023/08/04 06:10:08;;;;;;;2.05;0.93;;;14.50;99.90;;;;;;4962910;28;20046;-83
2023/08/04 06:12:35;;;;;;;1.73;0.90;;;14.50;99.90;;;;;;4961579;28;20039;-83
2023/08/04 06:15:01;;;;;;;1.85;0.73;;;14.60;99.90;;;;;;4960511;28;20034;-83
2023/08/04 06:17:26;;;;;;;1.48;0.88;;;14.70;99.90;;;;;;4961011;28;20502;-83
2023/08/04 06:19:52;;;;;;;1.98;1.10;;;14.70;99.90;;;;;;4960276;28;20118;-83
2023/08/04 06:22:17;;;;;;;2.13;1.00;;;14.70;99.90;;;;;;4960534;28;20508;-83
2023/08/04 06:24:43;;;;;;;2.10;0.90;;;14.80;99.90;;;;;;4960701;28;20020;-83
2023/08/04 06:27:09;;;;;;;6.05;1.25;;;14.90;99.90;;;;;;4961585;28;20026;-83
2023/08/04 06:29:34;;;;;;;1.55;1.00;;;14.90;99.90;;;;;;4963959;28;20023;-83
2023/08/04 06:32:01;;;;;;;2.10;0.80;;;15.00;99.90;;;;;;4964914;28;20034;-83
2023/08/04 06:34:27;;;;;;;3.63;1.20;;;15.00;99.90;;;;;;4964224;28;20037;-83
2023/08/04 06:36:52;;;;;;;3.10;1.17;;;15.10;99.90;;;;;;4964268;28;20439;-82
2023/08/04 06:39:18;;;;;;;1.73;1.00;;;15.20;99.90;;;;;;4963938;28;20319;-83
2023/08/04 06:41:43;;;;;;;1.05;0.80;;;15.30;99.90;;;;;;4964096;28;20450;-83
2023/08/04 06:44:09;;;;;;;2.05;1.00;;;15.40;99.90;;;;;;4964511;28;20025;-83
2023/08/04 06:46:35;;;;;;;1.67;0.85;;;15.50;99.90;;;;;;4963246;28;20494;-83
2023/08/04 06:49:01;;;;;;;2.67;1.35;;;15.50;99.90;;;;;;4961763;28;20031;-83
2023/08/04 06:51:26;;;;;;;2.30;1.00;;;15.50;99.90;;;;;;4961855;28;20118;-83
2023/08/04 06:53:52;;;;;;;2.03;0.98;;;15.60;99.90;;;;;;4959876;28;20127;-83
2023/08/04 06:56:18;;;;;;;2.05;1.10;;;15.60;99.90;;;;;;4961776;28;20031;-84
2023/08/04 06:58:44;;;;;;;2.80;1.10;;;15.70;99.90;;;;;;4962837;28;20031;-84
2023/08/04 07:01:09;;;;;;;2.50;1.00;;;15.70;99.90;;;;;;4961424;28;20026;-84
2023/08/04 07:03:35;;;;;;;1.65;1.00;;;15.70;99.90;;;;;;4961687;28;20443;-84
2023/08/04 07:06:00;;;;;;;3.72;1.10;;;15.80;99.90;;;;;;4962051;28;20039;-83
2023/08/04 07:08:26;;;;;;;2.38;1.05;;;15.80;99.90;;;;;;4962802;28;20112;-83
2023/08/04 07:10:52;;;;;;;3.75;0.90;;;15.80;99.90;;;;;;4963366;28;20033;-83
2023/08/04 07:13:17;;;;;;;2.53;1.27;;;15.90;99.90;;;;;;4961105;28;20068;-83
2023/08/04 07:15:57;;;;;;;2.97;0.90;;;15.90;99.90;;;;;;4962473;28;20030;-83
2023/08/04 07:18:22;;;;;;;2.65;1.30;;;16.00;99.90;;;;;;4962011;28;20125;-83
2023/08/04 07:20:48;;;;;;;3.10;1.20;;;16.10;99.90;;;;;;4962200;28;20027;-84
2023/08/04 07:23:13;;;;;;;1.40;0.90;;;16.10;99.90;;;;;;4962436;28;20036;-83
2023/08/04 07:25:39;;;;;;;1.65;0.90;;;16.20;99.90;;;;;;4963360;28;20022;-84
2023/08/04 07:28:05;;;;;;;1.77;1.00;;;16.20;99.90;;;;;;4962151;28;20053;-84
2023/08/04 07:30:32;;;;;;;3.00;1.10;;;16.10;99.90;;;;;;4962088;28;20031;-83
2023/08/04 07:32:58;;;;;;;2.95;1.20;;;16.20;99.90;;;;;;4963193;28;20038;-84
2023/08/04 07:35:24;;;;;;;2.00;1.05;;;16.20;99.90;;;;;;4961937;28;20109;-84
2023/08/04 07:37:49;;;;;;;4.20;1.05;;;16.20;99.90;;;;;;4962519;28;20166;-89
2023/08/04 07:40:15;;;;;;;2.42;1.00;;;16.30;99.90;;;;;;4957506;28;20911;-78
2023/08/04 07:42:41;;;;;;;3.00;1.38;;;16.30;99.90;;;;;;4957880;28;20031;-79
2023/08/04 07:45:08;;;;;;;2.63;1.30;;;16.30;99.90;;;;;;4956487;28;20037;-78
2023/08/04 07:47:33;;;;;;;2.63;0.85;;;16.50;99.90;;;;;;4956538;28;20019;-79
2023/08/04 07:49:59;;;;;;;2.25;1.05;;;16.50;99.90;;;;;;4957357;28;20034;-79
2023/08/04 07:52:24;;;;;;;2.35;1.00;;;16.70;99.90;;;;;;4954806;28;20034;-80
2023/08/04 07:54:50;;;;;;;2.28;0.98;;;16.80;99.90;;;;;;4955847;28;20035;-81
2023/08/04 07:57:15;;;;;;;3.42;1.27;;;16.80;99.90;;;;;;4960133;28;20033;-84
2023/08/04 07:59:41;;;;;;;1.92;1.00;;;16.90;99.90;;;;;;4968161;28;20145;-82
2023/08/04 08:02:06;;;;;;;1.98;1.10;;;16.90;99.90;;;;;;4969409;28;20062;-82
2023/08/04 08:04:32;;;;;;;3.30;1.08;;;16.90;99.90;;;;;;4970338;28;20090;-83
2023/08/04 08:06:57;;;;;;;3.17;1.50;;;16.80;99.90;;;;;;4967787;28;20034;-82
2023/08/04 08:09:23;;;;;;;2.17;1.00;;;16.80;99.90;;;;;;4969082;28;21441;-83
2023/08/04 08:11:48;;;;;;;1.58;1.00;;;16.80;99.90;;;;;;4969018;28;20031;-83
2023/08/04 08:14:16;;;;;;;2.88;1.00;;;16.80;99.90;;;;;;4968821;28;20046;-83
2023/08/04 08:16:42;;;;;;;1.88;1.00;;;16.80;99.90;;;;;;4965723;28;20133;-84
2023/08/04 08:19:09;;;;;;;1.75;1.00;;;16.80;99.90;;;;;;4967026;28;20038;-83
2023/08/04 08:21:35;;;;;;;2.15;1.00;;;16.70;99.90;;;;;;4968598;28;20548;-83
2023/08/04 08:24:00;;;;;;;2.25;0.93;;;16.80;99.90;;;;;;4967084;28;20106;-83
2023/08/04 08:26:26;;;;;;;3.58;1.00;;;16.90;99.90;;;;;;4965761;28;20035;-84
2023/08/04 08:28:51;;;;;;;2.58;1.05;;;16.90;99.90;;;;;;4967107;28;20034;-83
2023/08/04 08:31:17;;;;;;;2.58;1.10;;;17.00;99.90;;;;;;4967765;28;20046;-83
2023/08/04 08:33:43;;;;;;;2.85;0.80;;;17.10;99.90;;;;;;4968771;28;20060;-82
2023/08/04 08:36:08;;;;;;;3.40;0.98;;;17.20;99.90;;;;;;4968038;28;20031;-83
2023/08/04 08:38:34;;;;;;;1.25;0.70;;;17.20;99.90;;;;;;4966931;28;20026;-83
2023/08/04 08:40:59;;;;;;;1.10;0.73;;;17.10;99.90;;;;;;4966882;28;20038;-84
2023/08/04 08:43:25;;;;;;;0.95;0.70;;;17.10;99.90;;;;;;4965541;28;20058;-84
2023/08/04 08:45:52;;;;;;;1.17;0.80;;;17.10;99.90;;;;;;4964391;28;20422;-83
2023/08/04 08:48:19;;;;;;;2.00;0.88;;;17.10;99.90;;;;;;4965355;28;20027;-83
2023/08/04 08:50:50;;;;;;;4.40;0.80;;;17.10;99.90;;;;;;4964359;28;20112;-83
2023/08/04 08:53:23;;;;;;;2.03;0.80;;;17.20;99.90;;;;;;4962272;28;20033;-82
2023/08/04 08:55:50;;;;;;;2.28;0.90;;;17.20;99.90;;;;;;4964790;28;20038;-84
2023/08/04 08:58:16;;;;;;;1.83;0.85;;;17.20;99.90;;;;;;4964156;28;20027;-83
2023/08/04 09:00:42;;;;;;;2.15;0.82;;;17.20;99.90;;;;;;4965403;28;20027;-83
2023/08/04 09:03:09;;;;;;;1.40;0.60;;;17.10;99.90;;;;;;4966477;28;20114;-83
2023/08/04 09:05:34;;;;;;;1.50;0.82;;;17.10;99.90;;;;;;4965580;28;20043;-83
2023/08/04 09:08:00;;;;;;;4.40;1.00;;;17.10;99.90;;;;;;4965898;28;20039;-83
2023/08/04 09:10:26;;;;;;;1.80;0.93;;;17.10;99.90;;;;;;4963275;28;20023;-83
2023/08/04 09:12:52;;;;;;;2.60;0.90;;;17.20;99.90;;;;;;4963625;28;20078;-83
2023/08/04 09:15:18;;;;;;;2.13;0.90;;;17.20;99.90;;;;;;4963748;28;20387;-83
2023/08/04 09:17:44;;;;;;;1.33;0.82;;;17.20;99.90;;;;;;4962124;28;20034;-83
2023/08/04 09:20:25;;;;;;;1.35;0.70;;;17.40;99.90;;;;;;4960871;28;20030;-83
2023/08/04 09:22:51;;;;;;;2.13;0.80;;;17.40;99.90;;;;;;4962415;28;20034;-84
2023/08/04 09:25:17;;;;;;;2.95;0.70;;;17.60;99.90;;;;;;4960814;28;20042;-83
2023/08/04 09:27:43;;;;;;;1.63;1.00;;;17.80;99.90;;;;;;4961318;28;20039;-83
2023/08/04 09:30:10;;;;;;;1.83;0.98;;;17.90;99.90;;;;;;4963127;28;20089;-83
2023/08/04 09:32:43;;;;;;;2.78;1.02;;;18.10;99.90;;;;;;4963596;28;20774;-83
2023/08/04 09:35:09;;;;;;;1.48;0.95;;;18.20;99.90;;;;;;4960884;28;20147;-83
2023/08/04 09:37:36;;;;;;;2.10;0.80;;;18.20;99.90;;;;;;4962215;28;20065;-83
2023/08/04 09:40:04;;;;;;;1.27;0.90;;;18.30;99.90;;;;;;4961817;28;20034;-83
2023/08/04 09:42:30;;;;;;;4.93;0.95;;;18.40;99.90;;;;;;4961661;28;20073;-83
2023/08/04 09:44:56;;;;;;;1.13;0.75;;;18.50;99.90;;;;;;4961976;28;20027;-83
2023/08/04 09:47:26;;;;;;;3.47;0.77;;;18.60;99.90;;;;;;4961083;28;20987;-83
2023/08/04 09:49:52;;;;;;;2.42;0.90;;;18.70;99.90;;;;;;4962341;28;20023;-82
2023/08/04 09:52:27;;;;;;;3.70;0.85;;;18.70;99.90;;;;;;4962205;28;20034;-83
2023/08/04 09:54:55;;;;;;;1.88;0.80;;;18.80;99.90;;;;;;4963459;28;20045;-83
2023/08/04 09:57:24;;;;;;;0.88;0.80;;;18.90;99.90;;;;;;4961951;28;20143;-83
2023/08/04 09:59:51;;;;;;;3.58;0.95;;;19.00;99.90;;;;;;4963226;28;20038;-84
2023/08/04 10:02:18;;;;;;;2.78;1.00;;;19.20;99.90;;;;;;4960954;28;20180;-83
2023/08/04 10:04:50;;;;;;;1.15;0.80;;;19.40;99.90;;;;;;4962157;28;20681;-83
2023/08/04 10:07:18;;;;;;;1.85;0.90;;;19.50;99.90;;;;;;4959732;28;20516;-78
2023/08/04 10:09:47;;;;;;;1.98;0.80;;;19.60;99.90;;;;;;4959178;28;20030;-78
2023/08/04 10:12:16;;;;;;;1.10;0.73;;;19.70;99.90;;;;;;4960342;28;20030;-78
2023/08/04 10:14:42;;;;;;;1.30;0.70;;;19.80;99.90;;;;;;4959546;28;20043;-78
2023/08/04 10:17:08;;;;;;;2.65;1.00;;;19.80;99.90;;;;;;4961043;28;21398;-78
2023/08/04 10:19:35;;;;;;;1.92;0.98;;;19.90;99.90;;;;;;4961121;28;20019;-78
2023/08/04 10:22:08;;;;;;;3.88;0.70;;;19.90;99.90;;;;;;4960428;28;20027;-78
2023/08/04 10:24:35;;;;;;;3.38;0.85;;;20.00;99.90;;;;;;4959207;28;20037;-78
2023/08/04 10:27:18;;;;;;;1.70;1.00;;;20.10;99.90;;;;;;4958716;28;20038;-78
2023/08/04 10:29:43;;;;;;;1.92;0.85;;;20.20;99.90;;;;;;4959121;28;20030;-77
2023/08/04 10:32:09;;;;;;;3.35;0.98;;;20.20;99.90;;;;;;4957132;28;20085;-76
2023/08/04 10:34:42;;;;;;;5.78;0.90;;;20.30;99.90;;;;;;4958842;28;20042;-76
2023/08/04 10:37:11;;;;;;;1.77;0.80;;;20.40;99.90;;;;;;4958502;28;20037;-77
2023/08/04 10:39:55;;;;;;;1.40;0.70;;;20.50;99.90;;;;;;4957696;28;20525;-77
2023/08/04 10:42:23;;;;;;;1.95;0.68;;;20.60;99.90;;;;;;4958272;28;20027;-76
2023/08/04 10:45:06;;;;;;;1.35;0.80;;;20.70;99.90;;;;;;4962055;28;20113;-81
2023/08/04 10:47:52;;;;;;;2.17;0.98;;;20.70;99.90;;;;;;4957629;28;20054;-81
2023/08/04 10:50:17;;;;;;;;;;;20.70;99.90;;;;;;4962121;28;20089;-82
2023/08/04 10:52:43;;;;;;;1.33;0.70;;;20.80;99.90;;;;;;4960044;28;20806;-82
2023/08/04 10:55:12;;;;;;;1.90;0.82;;;20.80;99.90;;;;;;4960200;28;20035;-81
2023/08/04 10:57:39;;;;;;;1.73;0.90;;;21.00;99.90;;;;;;4957608;28;20095;-82
2023/08/04 11:00:06;;;;;;;2.17;0.90;;;21.00;99.90;;;;;;4960042;28;20023;-81
2023/08/04 11:02:33;;;;;;;0.80;0.60;;;21.10;99.90;;;;;;4960423;28;20034;-82
2023/08/04 11:04:58;;;;;;;2.40;0.75;;;21.00;99.90;;;;;;4959998;28;20778;-81
2023/08/04 11:07:24;;;;;;;2.75;0.95;;;20.80;99.90;;;;;;4958125;28;20042;-82
2023/08/04 11:09:53;;;;;;;1.08;0.77;;;20.80;99.90;;;;;;4960535;28;20081;-81
2023/08/04 11:12:19;;;;;;;2.42;1.10;;;20.70;99.90;;;;;;4961028;28;20047;-82
2023/08/04 11:14:45;;;;;;;2.15;0.90;;;20.60;99.90;;;;;;4959777;28;20328;-81
2023/08/04 11:17:15;;;;;;;1.42;0.90;;;20.50;99.90;;;;;;4955872;28;20034;-82
2023/08/04 11:19:46;;;;;;;1.25;0.80;;;20.50;99.90;;;;;;4958450;28;20664;-82
2023/08/04 11:22:14;;;;;;;5.07;0.90;;;20.50;99.90;;;;;;4956734;28;20035;-81
2023/08/04 11:24:41;;;;;;;1.27;0.68;;;20.50;99.90;;;;;;4958274;28;20660;-82
2023/08/04 11:27:08;;;;;;;1.10;0.63;;;20.60;99.90;;;;;;4957215;28;20140;-82
2023/08/04 11:29:34;;;;;;;1.40;0.98;;;20.70;99.90;;;;;;4955836;28;20040;-82
2023/08/04 11:32:00;;;;;;;3.88;0.80;;;21.00;99.90;;;;;;4956637;28;20030;-81
2023/08/04 11:34:28;;;;;;;1.67;0.80;;;21.20;99.90;;;;;;4957810;28;20042;-82
2023/08/04 11:36:54;;;;;;;1.70;1.00;;;21.50;99.90;;;;;;4958190;28;20490;-82
2023/08/04 11:39:19;;;;;;;0.95;0.75;;;21.60;99.90;;;;;;4959595;28;20042;-81
2023/08/04 11:41:45;;;;;;;0.95;0.70;;;21.80;99.90;;;;;;4958618;28;20038;-82
2023/08/04 11:44:13;;;;;;;1.48;0.80;;;22.00;99.90;;;;;;4956566;28;20035;-81
2023/08/04 11:46:39;;;;;;;3.28;0.90;;;22.10;99.90;;;;;;4956033;28;21473;-82
2023/08/04 11:49:06;;;;;;;2.05;0.90;;;22.00;99.90;;;;;;4958059;28;20039;-81
2023/08/04 11:51:32;;;;;;;1.13;0.70;;;22.00;99.90;;;;;;4959466;28;20146;-82
2023/08/04 11:53:58;;;;;;;1.52;0.95;;;22.10;99.90;;;;;;4958716;28;20050;-82
2023/08/04 11:56:24;;;;;;;1.23;0.80;;;22.10;99.90;;;;;;4954102;28;20165;-82
2023/08/04 11:58:54;;;;;;;2.70;0.90;;;22.30;99.90;;;;;;4956730;28;20059;-83
2023/08/04 12:01:33;;;;;;;5.20;1.00;;;22.30;99.90;;;;;;4961059;28;20034;-82
2023/08/04 12:03:59;;;;;;;1.73;0.70;;;22.40;99.90;;;;;;4958709;28;20073;-82
2023/08/04 12:06:26;;;;;;;2.67;1.02;;;22.60;99.90;;;;;;4957875;28;20377;-82
2023/08/04 12:08:54;;;;;;;4.00;1.00;;;22.80;99.90;;;;;;4960247;28;20126;-82
2023/08/04 12:11:22;;;;;;;5.25;0.95;;;23.30;99.90;;;;;;4959150;28;20962;-82
2023/08/04 12:13:48;;;;;;;2.78;1.02;;;23.50;99.90;;;;;;4959031;28;20049;-82
2023/08/04 12:16:15;;;;;;;2.13;0.80;;;23.30;99.90;;;;;;4958832;28;20862;-82
2023/08/04 12:18:41;;;;;;;1.33;0.80;;;23.10;99.90;;;;;;4960880;28;20027;-82
2023/08/04 12:21:10;;;;;;;1.67;0.90;;;23.00;99.90;;;;;;4958754;28;20038;-82
2023/08/04 12:23:37;;;;;;;3.88;0.95;;;22.90;99.90;;;;;;4961020;28;20786;-82
2023/08/04 12:26:02;;;;;;;2.58;0.90;;;22.80;99.90;;;;;;4966019;28;20132;-82
2023/08/04 12:28:28;;;;;;;3.80;0.77;;;22.80;99.90;;;;;;4959818;28;20156;-82
2023/08/04 12:30:53;;;;;;;1.02;0.80;;;22.80;99.90;;;;;;4962381;28;20463;-82
2023/08/04 12:33:19;;;;;;;2.40;0.90;;;22.70;99.90;;;;;;4963935;28;20157;-82
2023/08/04 12:35:44;;;;;;;3.50;1.23;;;22.80;99.90;;;;;;4964185;28;20057;-82
2023/08/04 12:38:11;;;;;;;2.17;0.82;;;22.80;99.90;;;;;;4963328;28;20224;-82
2023/08/04 12:40:37;;;;;;;1.65;0.90;;;22.70;99.90;;;;;;4963419;28;20089;-82
2023/08/04 12:43:02;;;;;;;1.58;0.95;;;22.80;99.90;;;;;;4960622;28;20514;-83
2023/08/04 12:45:28;;;;;;;1.77;0.85;;;22.70;99.90;;;;;;4960480;28;20031;-83